Perseus Leader — 3FBO9 — position and weather

sailwx.info

Track history (hours):
 
Tides and Currents Weather Stations Pressure Air Temp Water Temp Dewpoint Dewpoint Depression Visibility Wind Speed Wind Dir Waves Ship Positions

Perseus Leader

Last reported at 2017-Oct-17 03:16 UTC. Time now 2017-Oct-18 03:41 UTC.
Position N 43°52' W 006°04'.

Length 200 m; draft 8 m.

Type: Cargo ship. MMSI: 357170000.

Date/timePositionNaut miles runAvg speedWind from/ knotsBaromVisibWave heightAir tempDewpointWater temp
2017-Oct-17 03:16N 43°52' W 006°04'413.7
2017-Oct-17 02:57N 43°52' W 005°58'614.0
2017-Oct-17 02:30N 43°51' W 005°49'714.5
2017-Oct-17 02:01N 43°49' W 005°39'714.2
2017-Oct-17 01:30N 43°48' W 005°29'713.9
2017-Oct-17 01:00N 43°47' W 005°20'713.9
2017-Oct-17 00:30N 43°46' W 005°11'714.0
2017-Oct-16 23:59N 43°45' W 005°01'814.1
2017-Oct-16 23:24N 43°43' W 004°49'814.3
2017-Oct-16 22:52N 43°42' W 004°39'714.3
2017-Oct-16 22:21N 43°40' W 004°29'514.3
2017-Oct-16 22:00N 43°40' W 004°22'714.8
2017-Oct-16 21:30N 43°39' W 004°12'815.6
2017-Oct-16 21:01N 43°37' W 004°02'816.0
2017-Oct-16 20:30N 43°37' W 003°51'713.9
2017-Oct-16 20:01N 43°31' W 003°45'5 9.2
2017-Oct-16 19:30N 43°27' W 003°48'1 2.4
2017-Oct-16 18:59N 43°27' W 003°49'0 0.0
2017-Oct-16 18:29N 43°27' W 003°49'0 0.0
2017-Oct-16 17:59N 43°27' W 003°49'0 0.0
2017-Oct-16 17:20N 43°27' W 003°49'0 0.0
2017-Oct-16 16:59N 43°27' W 003°49'0 0.0
2017-Oct-16 16:29N 43°27' W 003°49'0 0.0
2017-Oct-16 15:59N 43°27' W 003°49'0 0.0
2017-Oct-16 15:26N 43°27' W 003°49'0 0.0
2017-Oct-16 14:59N 43°27' W 003°49'0 0.0
2017-Oct-16 14:29N 43°27' W 003°49'0 0.0
2017-Oct-16 13:26N 43°27' W 003°49'0 0.0
2017-Oct-16 12:56N 43°27' W 003°49'0 0.0
2017-Oct-16 12:29N 43°27' W 003°49'0 0.0
2017-Oct-16 11:59N 43°27' W 003°49'0 0.0
2017-Oct-16 11:30N 43°27' W 003°49'0 0.2
2017-Oct-16 11:00N 43°27' W 003°49'2 4.3
2017-Oct-16 10:30N 43°28' W 003°47'4 8.8
2017-Oct-16 10:00N 43°32' W 003°44'4 7.8
2017-Oct-16 09:30N 43°35' W 003°41'4 8.8
2017-Oct-16 09:00N 43°38' W 003°38'5 9.2
2017-Oct-16 08:30N 43°42' W 003°34'611.6
2017-Oct-16 08:00N 43°46' W 003°29'713.8
2017-Oct-16 07:30N 43°52' W 003°22'611.5
2017-Oct-16 07:00N 43°56' W 003°17'1 2.0
2017-Oct-16 06:30N 43°56' W 003°18'1 2.7
2017-Oct-16 06:00N 43°55' W 003°20'1 2.7
2017-Oct-16 05:31N 43°54' W 003°21'2 2.9
2017-Oct-16 04:59N 43°53' W 003°23'1 2.8
2017-Oct-16 04:31N 43°52' W 003°24'1 3.0
2017-Oct-16 04:01N 43°51' W 003°26'1 2.8
2017-Oct-16 03:30N 43°50' W 003°27'1 2.5
2017-Oct-16 03:00N 43°49' W 003°28'1 2.6
2017-Oct-16 02:30N 43°48' W 003°30'1 2.8
2017-Oct-16 02:00N 43°47' W 003°31'1 2.6
2017-Oct-16 01:25N 43°46' W 003°33'1 2.5
2017-Oct-16 00:58N 43°46' W 003°34'1 2.6
2017-Oct-16 00:28N 43°45' W 003°36'1 2.3
2017-Oct-15 23:58N 43°44' W 003°37'1 1.7
2017-Oct-15 23:28N 43°43' W 003°37'0 1.0
2017-Oct-15 22:58N 43°43' W 003°38'0 0.4
2017-Oct-15 22:28N 43°43' W 003°38'0 0.1
2017-Oct-15 21:58N 43°43' W 003°38'0 1.0
2017-Oct-15 21:28N 43°43' W 003°37'3 5.5
2017-Oct-15 21:00N 43°45' W 003°35'510.2
2017-Oct-15 20:30N 43°49' W 003°30'510.6
2017-Oct-15 20:00N 43°53' W 003°26'510.8
2017-Oct-15 19:30N 43°57' W 003°21'1 2.2
2017-Oct-15 18:58N 43°58' W 003°19'1 1.7
2017-Oct-15 18:28N 43°57' W 003°20'1 1.6
2017-Oct-15 17:58N 43°56' W 003°20'1 1.4
2017-Oct-15 17:28N 43°56' W 003°21'1 1.5
2017-Oct-15 16:58N 43°55' W 003°21'1 1.6
2017-Oct-15 16:28N 43°54' W 003°22'1 1.7
2017-Oct-15 15:58N 43°54' W 003°23'1 1.9
2017-Oct-15 15:28N 43°53' W 003°24'1 2.1
2017-Oct-15 14:58N 43°53' W 003°25'2 1.9
2017-Oct-15 13:58N 43°51' W 003°27'1 1.9
2017-Oct-15 13:28N 43°51' W 003°28'1 2.0
2017-Oct-15 12:58N 43°50' W 003°29'1 2.0
2017-Oct-15 12:28N 43°49' W 003°30'1 1.8
2017-Oct-15 11:58N 43°49' W 003°31'1 1.6
2017-Oct-15 11:28N 43°48' W 003°32'1 1.4
2017-Oct-15 10:58N 43°47' W 003°32'1 1.5
2017-Oct-15 10:28N 43°47' W 003°33'1 1.5
2017-Oct-15 09:58N 43°46' W 003°34'1 1.3
2017-Oct-15 09:28N 43°46' W 003°34'1 1.2
2017-Oct-15 08:58N 43°45' W 003°34'1 1.1
2017-Oct-15 08:28N 43°45' W 003°35'1 1.0
2017-Oct-15 07:58N 43°44' W 003°35'0 1.0
2017-Oct-15 07:28N 43°44' W 003°36'0 1.0
2017-Oct-15 06:58N 43°44' W 003°36'0 0.9
2017-Oct-15 06:28N 43°43' W 003°37'1 1.1
2017-Oct-15 05:58N 43°43' W 003°37'0 0.9
2017-Oct-15 05:28N 43°43' W 003°37'0 1.0
2017-Oct-15 04:58N 43°42' W 003°38'0 1.0
2017-Oct-15 04:28N 43°42' W 003°38'0 0.9
2017-Oct-15 03:58N 43°41' W 003°38'0 0.8
2017-Oct-15 03:28N 43°41' W 003°39'0 0.7
2017-Oct-15 02:58N 43°41' W 003°39'0 0.6
2017-Oct-15 02:28N 43°40' W 003°39'0 0.6
2017-Oct-15 01:58N 43°40' W 003°40'0 0.8
2017-Oct-15 01:28N 43°40' W 003°40'0 0.7
2017-Oct-15 00:58N 43°40' W 003°40'0 0.8
2017-Oct-15 00:28N 43°39' W 003°41'0 0.8
2017-Oct-14 23:58N 43°39' W 003°41'0 0.8
2017-Oct-14 23:28N 43°39' W 003°42'0 0.8
2017-Oct-14 22:58N 43°39' W 003°42'0 0.7
2017-Oct-14 22:28N 43°39' W 003°43'0 0.8
2017-Oct-14 21:58N 43°39' W 003°43'0 0.7
2017-Oct-14 21:28N 43°39' W 003°44'0 0.6
2017-Oct-14 20:58N 43°38' W 003°44'0 0.6
2017-Oct-14 20:28N 43°38' W 003°44'0 0.6
2017-Oct-14 19:59N 43°38' W 003°45'0 0.7
2017-Oct-14 19:31N 43°38' W 003°45'0 0.7
2017-Oct-14 19:01N 43°38' W 003°45'0 1.0
2017-Oct-14 18:31N 43°39' W 003°46'0 0.4
2017-Oct-14 18:01N 43°39' W 003°46'0 0.8
2017-Oct-14 17:30N 43°39' W 003°45'3 7.0
2017-Oct-14 17:00N 43°35' W 003°45'510.3
2017-Oct-14 16:31N 43°30' W 003°45'1 1.4
2017-Oct-14 16:01N 43°29' W 003°46'0 0.1
2017-Oct-14 15:24N 43°29' W 003°46'0 0.1
2017-Oct-14 15:01N 43°29' W 003°46'0 0.0
2017-Oct-14 14:30N 43°29' W 003°46'0 0.0
2017-Oct-14 14:00N 43°29' W 003°46'0 0.0
2017-Oct-14 13:31N 43°29' W 003°46'0 0.0
2017-Oct-14 12:58N 43°29' W 003°46'0 0.0
2017-Oct-14 12:28N 43°29' W 003°46'0 0.0
2017-Oct-14 12:00N 43°29' W 003°46'0 0.0
2017-Oct-14 11:31N 43°29' W 003°46'0 0.0
2017-Oct-14 10:54N 43°29' W 003°46'0 0.1
2017-Oct-14 10:31N 43°29' W 003°46'0 0.2
2017-Oct-14 10:00N 43°29' W 003°46'2 3.9
2017-Oct-14 09:30N 43°31' W 003°45'510.6
2017-Oct-14 09:01N 43°36' W 003°46'815.7
2017-Oct-14 08:31N 43°44' W 003°50'815.6
2017-Oct-14 08:01N 43°51' W 003°53'815.7
2017-Oct-14 07:30N 43°59' W 003°56'815.9
2017-Oct-14 07:01N 44°06' W 004°00'815.9
2017-Oct-14 06:30N 44°14' W 004°04'815.7
2017-Oct-14 05:58N 44°22' W 004°07'715.6
2017-Oct-14 05:31N 44°28' W 004°11'815.7
2017-Oct-14 04:59N 44°36' W 004°15'3315.6
2017-Oct-14 02:52N 45°07' W 004°30'1115.9
2017-Oct-14 02:10N 45°18' W 004°35'715.9
2017-Oct-14 01:43N 45°25' W 004°38'516.1
2017-Oct-14 01:24N 45°29' W 004°41'615.2
2017-Oct-14 01:00N 45°35' W 004°43'2315.5
2017-Oct-13 23:33N 45°57' W 004°54'515.3
2017-Oct-13 23:15N 46°01' W 004°56'415.2
2017-Oct-13 23:00N 46°04' W 004°58'815.5
2017-Oct-13 22:31N 46°12' W 005°02'915.7
2017-Oct-13 21:58N 46°20' W 005°06'715.5
2017-Oct-13 21:30N 46°26' W 005°09'815.2
2017-Oct-13 21:00N 46°34' W 005°13'1015.3
2017-Oct-13 20:19N 46°44' W 005°18'515.1
2017-Oct-13 19:58N 46°49' W 005°20'715.2
2017-Oct-13 19:31N 46°55' W 005°24'815.3
2017-Oct-13 19:00N 47°03' W 005°27'815.5
2017-Oct-13 18:30N 47°10' W 005°30'815.3
2017-Oct-13 17:59N 47°17' W 005°34'715.3
2017-Oct-13 17:31N 47°24' W 005°38'815.3
2017-Oct-13 17:01N 47°31' W 005°42'815.5
2017-Oct-13 16:31N 47°39' W 005°45'816.4
2017-Oct-13 16:00N 47°47' W 005°49'1315.8
2017-Oct-13 15:13N 47°58' W 005°56'416.0
2017-Oct-13 14:58N 48°02' W 005°58'815.9
2017-Oct-13 14:29N 48°09' W 006°01'1315.9
2017-Oct-13 13:39N 48°22' W 006°08'214.5
2017-Oct-13 13:29N 48°24' W 006°08'815.5
2017-Oct-13 12:56N 48°32' W 006°04'915.5
2017-Oct-13 12:22N 48°40' W 005°58'615.1
2017-Oct-13 11:59N 48°45' W 005°53'715.0
2017-Oct-13 11:30N 48°51' W 005°48'713.6
2017-Oct-13 11:00N 48°56' W 005°41'714.2
2017-Oct-13 10:30N 48°59' W 005°31'714.0
2017-Oct-13 10:00N 49°03' W 005°22'714.3
2017-Oct-13 09:31N 49°07' W 005°13'714.0
2017-Oct-13 09:01N 49°11' W 005°05'714.6
2017-Oct-13 08:30N 49°15' W 004°55'715.0
2017-Oct-13 08:00N 49°18' W 004°45'815.3
2017-Oct-13 07:31N 49°23' W 004°35'815.5
2017-Oct-13 07:01N 49°26' W 004°25'815.8
2017-Oct-13 06:30N 49°30' W 004°14'816.2
2017-Oct-13 06:00N 49°34' W 004°03'816.4
2017-Oct-13 05:29N 49°38' W 003°51'816.5
2017-Oct-13 05:01N 49°42' W 003°41'816.8
2017-Oct-13 04:31N 49°47' W 003°30'816.8
2017-Oct-13 04:01N 49°51' W 003°19'816.8
2017-Oct-13 03:30N 49°56' W 003°08'816.4
2017-Oct-13 03:00N 49°60' W 002°57'816.2
2017-Oct-13 02:30N 50°02' W 002°45'915.7
2017-Oct-13 01:58N 50°03' W 002°32'2514.8
2017-Oct-13 00:15N 50°10' W 001°54'514.6
2017-Oct-12 23:55N 50°11' W 001°46'1114.8
2017-Oct-12 23:11N 50°14' W 001°30'414.9
2017-Oct-12 22:55N 50°15' W 001°24'615.0
2017-Oct-12 22:30N 50°17' W 001°15'815.6
2017-Oct-12 22:01N 50°19' W 001°03'816.5
2017-Oct-12 21:30N 50°21' W 000°50'917.1
2017-Oct-12 20:58N 50°23' W 000°36'817.5
2017-Oct-12 20:31N 50°26' W 000°24'917.6
2017-Oct-12 20:00N 50°28' W 000°11'917.7
2017-Oct-12 19:31N 50°30' E 000°03'917.8
2017-Oct-12 19:01N 50°32' E 000°16'917.6
2017-Oct-12 18:31N 50°35' E 000°29'917.1
2017-Oct-12 18:01N 50°39' E 000°41'816.7
2017-Oct-12 17:31N 50°43' E 000°52'816.3
2017-Oct-12 17:01N 50°48' E 001°03'815.9
2017-Oct-12 16:30N 50°52' E 001°14'714.1
2017-Oct-12 16:00N 50°57' E 001°22'713.9
2017-Oct-12 15:31N 51°02' E 001°29'815.3
2017-Oct-12 15:01N 51°07' E 001°38'815.6
2017-Oct-12 14:31N 51°14' E 001°45'816.9
2017-Oct-12 14:01N 51°21' E 001°51'917.6
2017-Oct-12 13:30N 51°29' E 001°59'917.9
2017-Oct-12 13:00N 51°35' E 002°09'917.8
2017-Oct-12 12:30N 51°41' E 002°19'7515.7
2017-Oct-12 07:44N 52°40' E 003°35'314.1
2017-Oct-12 07:30N 52°43' E 003°38'713.8
2017-Oct-12 07:00N 52°48' E 003°45'713.6
2017-Oct-12 06:31N 52°53' E 003°53'713.6
2017-Oct-12 06:00N 52°58' E 004°00'713.9
2017-Oct-12 05:30N 53°03' E 004°09'714.0
2017-Oct-12 05:01N 53°07' E 004°18'713.6
2017-Oct-12 04:30N 53°13' E 004°25'915.1
2017-Oct-12 03:54N 53°21' E 004°30'614.7
2017-Oct-12 03:30N 53°27' E 004°34'713.3
2017-Oct-12 03:00N 53°30' E 004°43'714.1
2017-Oct-12 02:30N 53°33' E 004°55'714.1
2017-Oct-12 02:00N 53°35' E 005°06'713.8
2017-Oct-12 01:31N 53°37' E 005°17'713.4
2017-Oct-12 00:58N 53°39' E 005°29'7813.6
2017-Oct-11 19:13N 54°00' E 007°36'312.5
2017-Oct-11 18:57N 53°58' E 007°41'914.4
2017-Oct-11 18:21N 53°53' E 007°52'616.6
2017-Oct-11 18:00N 53°51' E 008°01'917.4
2017-Oct-11 17:31N 53°45' E 008°12'917.2
2017-Oct-11 17:00N 53°40' E 008°23'9 0.5
2017-Oct-10 23:58N 53°34' E 008°34'0 0.0
2017-Oct-10 23:28N 53°34' E 008°34'0 0.0
2017-Oct-10 22:58N 53°34' E 008°34'0 0.0
2017-Oct-10 22:28N 53°34' E 008°34'0 0.0
2017-Oct-10 21:58N 53°34' E 008°34'0 0.0
2017-Oct-10 21:28N 53°34' E 008°34'0 0.0
2017-Oct-10 20:58N 53°34' E 008°34'0 0.0
2017-Oct-10 20:28N 53°34' E 008°34'0 0.0
2017-Oct-10 19:58N 53°34' E 008°34'0 0.6
2017-Oct-10 19:30N 53°34' E 008°34'0 0.4
2017-Oct-10 19:00N 53°33' E 008°34'0 0.5
2017-Oct-10 18:30N 53°33' E 008°34'1 2.0
2017-Oct-10 18:00N 53°34' E 008°33'3 6.7
2017-Oct-10 17:30N 53°37' E 008°29'713.3
2017-Oct-10 17:00N 53°41' E 008°21'713.4
2017-Oct-10 16:30N 53°45' E 008°12'713.7
2017-Oct-10 16:00N 53°50' E 008°04'713.9
2017-Oct-10 15:30N 53°52' E 007°52'611.4
2017-Oct-10 14:57N 53°53' E 007°42'7815.6
2017-Oct-10 09:59N 53°36' E 005°34'817.1
2017-Oct-10 09:30N 53°34' E 005°21'917.2
2017-Oct-10 09:00N 53°32' E 005°07'917.1
2017-Oct-10 08:30N 53°27' E 004°54'917.1
2017-Oct-10 08:01N 53°24' E 004°41'917.1
2017-Oct-10 07:30N 53°16' E 004°36'918.0
2017-Oct-10 07:00N 53°08' E 004°29'917.6
2017-Oct-10 06:30N 52°60' E 004°22'917.3
2017-Oct-10 06:00N 52°52' E 004°16'917.5
2017-Oct-10 05:30N 52°45' E 004°06'917.7
2017-Oct-10 05:00N 52°39' E 003°57'917.7
2017-Oct-10 04:30N 52°32' E 003°47'917.6
2017-Oct-10 04:00N 52°26' E 003°37'1017.3
2017-Oct-10 03:25N 52°19' E 003°26'1016.9
2017-Oct-10 02:49N 52°11' E 003°15'516.5
2017-Oct-10 02:30N 52°07' E 003°09'816.2
2017-Oct-10 01:59N 52°01' E 002°59'815.7
2017-Oct-10 01:29N 51°55' E 002°50'715.3
2017-Oct-10 01:00N 51°50' E 002°42'714.3
2017-Oct-10 00:29N 51°43' E 002°41'713.9
2017-Oct-10 00:00N 51°36' E 002°43'714.3
2017-Oct-09 23:30N 51°29' E 002°42'5 9.9
2017-Oct-09 23:00N 51°25' E 002°46'714.7
2017-Oct-09 22:30N 51°25' E 002°58'815.2
2017-Oct-09 22:00N 51°23' E 003°10'4 7.1
2017-Oct-09 21:30N 51°20' E 003°13'0 0.0
2017-Oct-09 20:58N 51°20' E 003°13'0 0.0
2017-Oct-09 20:28N 51°20' E 003°13'1 2.2
2017-Oct-09 20:00N 51°19' E 003°13'0 0.8
2017-Oct-09 19:29N 51°19' E 003°13'0 0.0
2017-Oct-09 18:59N 51°19' E 003°13'0 0.0
2017-Oct-09 18:29N 51°19' E 003°13'0 0.0
2017-Oct-09 17:59N 51°19' E 003°13'0 0.0
2017-Oct-09 17:29N 51°19' E 003°13'0 0.0
2017-Oct-09 16:59N 51°19' E 003°13'0 0.0
2017-Oct-09 16:29N 51°19' E 003°13'0 0.0
2017-Oct-09 15:59N 51°19' E 003°13'0 0.0
2017-Oct-09 15:29N 51°19' E 003°13'0 0.0
2017-Oct-09 14:59N 51°19' E 003°13'0 0.0
2017-Oct-09 14:29N 51°19' E 003°13'0 0.0
2017-Oct-09 13:59N 51°19' E 003°13'0 0.0
2017-Oct-09 13:29N 51°19' E 003°13'0 0.0
2017-Oct-09 12:59N 51°19' E 003°13'0 0.0
2017-Oct-09 12:29N 51°19' E 003°13'0 0.0
2017-Oct-09 11:59N 51°19' E 003°13'0 0.0
2017-Oct-09 11:29N 51°19' E 003°13'0 0.0
2017-Oct-09 10:59N 51°19' E 003°13'0 0.0
2017-Oct-09 10:29N 51°19' E 003°13'0 0.0
2017-Oct-09 09:59N 51°19' E 003°13'0 0.0
2017-Oct-09 09:29N 51°19' E 003°13'0 0.0
2017-Oct-09 08:59N 51°19' E 003°13'0 0.0
2017-Oct-09 08:29N 51°19' E 003°13'0 0.0
2017-Oct-09 07:59N 51°19' E 003°13'0 0.0
2017-Oct-09 07:29N 51°19' E 003°13'0 0.0
2017-Oct-09 06:59N 51°19' E 003°13'0 0.0
2017-Oct-09 06:29N 51°19' E 003°13'0 0.0
2017-Oct-09 05:59N 51°19' E 003°13'0 0.0
2017-Oct-09 05:29N 51°19' E 003°13'0 0.0
2017-Oct-09 04:59N 51°19' E 003°13'0 0.0
2017-Oct-09 04:29N 51°19' E 003°13'0 0.0
2017-Oct-09 03:59N 51°19' E 003°13'0 0.0
2017-Oct-09 03:29N 51°19' E 003°13'0 0.0
2017-Oct-09 02:59N 51°19' E 003°13'0 0.0
2017-Oct-09 02:29N 51°19' E 003°13'0 0.0
2017-Oct-09 01:59N 51°19' E 003°13'0 0.0
2017-Oct-09 01:29N 51°19' E 003°13'0 0.0
2017-Oct-09 00:59N 51°19' E 003°13'0 0.0
2017-Oct-09 00:29N 51°19' E 003°13'0 0.0
2017-Oct-08 23:59N 51°19' E 003°13'0 0.0
2017-Oct-08 23:29N 51°19' E 003°13'0 0.0
2017-Oct-08 22:59N 51°19' E 003°13'0 0.0
2017-Oct-08 22:29N 51°19' E 003°13'0 0.0
2017-Oct-08 21:59N 51°19' E 003°13'0 0.0
2017-Oct-08 21:29N 51°19' E 003°13'0 0.0
2017-Oct-08 20:59N 51°19' E 003°13'0 0.0
2017-Oct-08 20:29N 51°19' E 003°13'0 0.0
2017-Oct-08 19:59N 51°19' E 003°13'0 0.0
2017-Oct-08 19:29N 51°19' E 003°13'0 0.0
2017-Oct-08 18:59N 51°19' E 003°13'0 0.0
2017-Oct-08 18:29N 51°19' E 003°13'0 0.0
2017-Oct-08 17:59N 51°19' E 003°13'0 0.0
2017-Oct-08 17:29N 51°19' E 003°13'0 0.0
2017-Oct-08 16:59N 51°19' E 003°13'0 0.0
2017-Oct-08 16:29N 51°19' E 003°13'0 0.0
2017-Oct-08 15:59N 51°19' E 003°13'0 0.0
2017-Oct-08 15:29N 51°19' E 003°13'0 0.0
2017-Oct-08 14:59N 51°19' E 003°13'0 0.0
2017-Oct-08 14:29N 51°19' E 003°13'0 0.0
2017-Oct-08 13:59N 51°19' E 003°13'0 0.0
2017-Oct-08 13:29N 51°19' E 003°13'0 0.0
2017-Oct-08 12:59N 51°19' E 003°13'0 0.0
2017-Oct-08 12:29N 51°19' E 003°13'0 0.0
2017-Oct-08 11:59N 51°19' E 003°13'0 0.0
2017-Oct-08 11:29N 51°19' E 003°13'0 0.0
2017-Oct-08 10:59N 51°19' E 003°13'0 0.0
2017-Oct-08 10:29N 51°19' E 003°13'0 0.0
2017-Oct-08 09:59N 51°19' E 003°13'0 0.0
2017-Oct-08 09:29N 51°19' E 003°13'0 0.0
2017-Oct-08 08:59N 51°19' E 003°13'0 0.0
2017-Oct-08 08:29N 51°19' E 003°13'0 0.0
2017-Oct-08 07:59N 51°19' E 003°13'0 0.0
2017-Oct-08 07:29N 51°19' E 003°13'0 0.0
2017-Oct-08 06:59N 51°19' E 003°13'0 0.0
2017-Oct-08 06:29N 51°19' E 003°13'0 0.0
2017-Oct-08 05:59N 51°19' E 003°13'0 0.0
2017-Oct-08 05:29N 51°19' E 003°13'0 0.0
2017-Oct-08 04:59N 51°19' E 003°13'0 0.0
2017-Oct-08 04:29N 51°19' E 003°13'0 0.0
2017-Oct-08 03:59N 51°19' E 003°13'0 0.0
2017-Oct-08 03:29N 51°19' E 003°13'0 0.0
2017-Oct-08 02:59N 51°19' E 003°13'0 0.0
2017-Oct-08 02:29N 51°19' E 003°13'0 0.0
2017-Oct-08 01:59N 51°19' E 003°13'0 0.0
2017-Oct-08 01:29N 51°19' E 003°13'0 0.0
2017-Oct-08 00:59N 51°19' E 003°13'0 0.0
2017-Oct-08 00:29N 51°19' E 003°13'0 0.0
2017-Oct-07 23:59N 51°19' E 003°13'0 0.0
2017-Oct-07 23:29N 51°19' E 003°13'0 0.0
2017-Oct-07 22:59N 51°19' E 003°13'0 0.0
2017-Oct-07 22:29N 51°19' E 003°13'0 0.0
2017-Oct-07 21:59N 51°19' E 003°13'0 0.0
2017-Oct-07 21:29N 51°19' E 003°13'0 0.0
2017-Oct-07 20:59N 51°19' E 003°13'0 0.0
2017-Oct-07 20:29N 51°19' E 003°13'0 0.0
2017-Oct-07 19:59N 51°19' E 003°13'0 0.0
2017-Oct-07 19:29N 51°19' E 003°13'0 0.0
2017-Oct-07 18:59N 51°19' E 003°13'0 0.0
2017-Oct-07 18:29N 51°19' E 003°13'0 0.0
2017-Oct-07 17:59N 51°19' E 003°13'0 0.0
2017-Oct-07 17:29N 51°19' E 003°13'0 0.0
2017-Oct-07 16:59N 51°19' E 003°13'0 0.0
2017-Oct-07 16:29N 51°19' E 003°13'0 0.0
2017-Oct-07 15:59N 51°19' E 003°13'0 0.0
2017-Oct-07 15:29N 51°19' E 003°13'0 0.0
2017-Oct-07 14:59N 51°19' E 003°13'0 0.0
2017-Oct-07 14:29N 51°19' E 003°13'0 0.0
2017-Oct-07 13:59N 51°19' E 003°13'0 0.0
2017-Oct-07 13:29N 51°19' E 003°13'0 0.0
2017-Oct-07 12:59N 51°19' E 003°13'0 0.0
2017-Oct-07 12:29N 51°19' E 003°13'0 0.0
2017-Oct-07 11:59N 51°19' E 003°13'0 0.0
2017-Oct-07 11:29N 51°19' E 003°13'0 0.0
2017-Oct-07 10:59N 51°19' E 003°13'0 0.0
2017-Oct-07 10:29N 51°19' E 003°13'0 0.0
2017-Oct-07 09:59N 51°19' E 003°13'0 0.0
2017-Oct-07 09:29N 51°19' E 003°13'0 0.0
2017-Oct-07 08:59N 51°19' E 003°13'0 0.0
2017-Oct-07 08:29N 51°19' E 003°13'0 0.0
2017-Oct-07 07:59N 51°19' E 003°13'0 0.0
2017-Oct-07 07:29N 51°19' E 003°13'0 0.0
2017-Oct-07 06:59N 51°19' E 003°13'0 0.0
2017-Oct-07 06:29N 51°19' E 003°13'0 0.2
2017-Oct-07 06:00N 51°19' E 003°13'1 1.4
2017-Oct-07 05:30N 51°20' E 003°13'0 0.5
2017-Oct-07 05:01N 51°20' E 003°13'0 0.1
2017-Oct-07 04:31N 51°20' E 003°13'2 4.3
2017-Oct-07 04:01N 51°22' E 003°11'611.0
2017-Oct-07 03:31N 51°24' E 003°03'  
Track history (hours):
 
Tides and Currents Weather Stations Pressure Air Temp Water Temp Dewpoint Dewpoint Depression Visibility Wind Speed Wind Dir Waves Ship Positions

Perseus Leader

Last reported at 2017-Oct-17 03:16 UTC. Time now 2017-Oct-18 03:41 UTC.
Position N 43°52' W 006°04'.

Length 200 m; draft 8 m.

Type: Cargo ship. MMSI: 357170000.

Date/timePositionNaut miles runAvg speedWind from/ knotsBaromVisibWave heightAir tempDewpointWater temp
2017-Oct-17 03:16N 43°52' W 006°04'413.7
2017-Oct-17 02:57N 43°52' W 005°58'614.0
2017-Oct-17 02:30N 43°51' W 005°49'714.5
2017-Oct-17 02:01N 43°49' W 005°39'714.2
2017-Oct-17 01:30N 43°48' W 005°29'713.9
2017-Oct-17 01:00N 43°47' W 005°20'713.9
2017-Oct-17 00:30N 43°46' W 005°11'714.0
2017-Oct-16 23:59N 43°45' W 005°01'814.1
2017-Oct-16 23:24N 43°43' W 004°49'814.3
2017-Oct-16 22:52N 43°42' W 004°39'714.3
2017-Oct-16 22:21N 43°40' W 004°29'514.3
2017-Oct-16 22:00N 43°40' W 004°22'714.8
2017-Oct-16 21:30N 43°39' W 004°12'815.6
2017-Oct-16 21:01N 43°37' W 004°02'816.0
2017-Oct-16 20:30N 43°37' W 003°51'713.9
2017-Oct-16 20:01N 43°31' W 003°45'5 9.2
2017-Oct-16 19:30N 43°27' W 003°48'1 2.4
2017-Oct-16 18:59N 43°27' W 003°49'0 0.0
2017-Oct-16 18:29N 43°27' W 003°49'0 0.0
2017-Oct-16 17:59N 43°27' W 003°49'0 0.0
2017-Oct-16 17:20N 43°27' W 003°49'0 0.0
2017-Oct-16 16:59N 43°27' W 003°49'0 0.0
2017-Oct-16 16:29N 43°27' W 003°49'0 0.0
2017-Oct-16 15:59N 43°27' W 003°49'0 0.0
2017-Oct-16 15:26N 43°27' W 003°49'0 0.0
2017-Oct-16 14:59N 43°27' W 003°49'0 0.0
2017-Oct-16 14:29N 43°27' W 003°49'0 0.0
2017-Oct-16 13:26N 43°27' W 003°49'0 0.0
2017-Oct-16 12:56N 43°27' W 003°49'0 0.0
2017-Oct-16 12:29N 43°27' W 003°49'0 0.0
2017-Oct-16 11:59N 43°27' W 003°49'0 0.0
2017-Oct-16 11:30N 43°27' W 003°49'0 0.2
2017-Oct-16 11:00N 43°27' W 003°49'2 4.3
2017-Oct-16 10:30N 43°28' W 003°47'4 8.8
2017-Oct-16 10:00N 43°32' W 003°44'4 7.8
2017-Oct-16 09:30N 43°35' W 003°41'4 8.8
2017-Oct-16 09:00N 43°38' W 003°38'5 9.2
2017-Oct-16 08:30N 43°42' W 003°34'611.6
2017-Oct-16 08:00N 43°46' W 003°29'713.8
2017-Oct-16 07:30N 43°52' W 003°22'611.5
2017-Oct-16 07:00N 43°56' W 003°17'1 2.0
2017-Oct-16 06:30N 43°56' W 003°18'1 2.7
2017-Oct-16 06:00N 43°55' W 003°20'1 2.7
2017-Oct-16 05:31N 43°54' W 003°21'2 2.9
2017-Oct-16 04:59N 43°53' W 003°23'1 2.8
2017-Oct-16 04:31N 43°52' W 003°24'1 3.0
2017-Oct-16 04:01N 43°51' W 003°26'1 2.8
2017-Oct-16 03:30N 43°50' W 003°27'1 2.5
2017-Oct-16 03:00N 43°49' W 003°28'1 2.6
2017-Oct-16 02:30N 43°48' W 003°30'1 2.8
2017-Oct-16 02:00N 43°47' W 003°31'1 2.6
2017-Oct-16 01:25N 43°46' W 003°33'1 2.5
2017-Oct-16 00:58N 43°46' W 003°34'1 2.6
2017-Oct-16 00:28N 43°45' W 003°36'1 2.3
2017-Oct-15 23:58N 43°44' W 003°37'1 1.7
2017-Oct-15 23:28N 43°43' W 003°37'0 1.0
2017-Oct-15 22:58N 43°43' W 003°38'0 0.4
2017-Oct-15 22:28N 43°43' W 003°38'0 0.1
2017-Oct-15 21:58N 43°43' W 003°38'0 1.0
2017-Oct-15 21:28N 43°43' W 003°37'3 5.5
2017-Oct-15 21:00N 43°45' W 003°35'510.2
2017-Oct-15 20:30N 43°49' W 003°30'510.6
2017-Oct-15 20:00N 43°53' W 003°26'510.8
2017-Oct-15 19:30N 43°57' W 003°21'1 2.2
2017-Oct-15 18:58N 43°58' W 003°19'1 1.7
2017-Oct-15 18:28N 43°57' W 003°20'1 1.6
2017-Oct-15 17:58N 43°56' W 003°20'1 1.4
2017-Oct-15 17:28N 43°56' W 003°21'1 1.5
2017-Oct-15 16:58N 43°55' W 003°21'1 1.6
2017-Oct-15 16:28N 43°54' W 003°22'1 1.7
2017-Oct-15 15:58N 43°54' W 003°23'1 1.9
2017-Oct-15 15:28N 43°53' W 003°24'1 2.1
2017-Oct-15 14:58N 43°53' W 003°25'2 1.9
2017-Oct-15 13:58N 43°51' W 003°27'1 1.9
2017-Oct-15 13:28N 43°51' W 003°28'1 2.0
2017-Oct-15 12:58N 43°50' W 003°29'1 2.0
2017-Oct-15 12:28N 43°49' W 003°30'1 1.8
2017-Oct-15 11:58N 43°49' W 003°31'1 1.6
2017-Oct-15 11:28N 43°48' W 003°32'1 1.4
2017-Oct-15 10:58N 43°47' W 003°32'1 1.5
2017-Oct-15 10:28N 43°47' W 003°33'1 1.5
2017-Oct-15 09:58N 43°46' W 003°34'1 1.3
2017-Oct-15 09:28N 43°46' W 003°34'1 1.2
2017-Oct-15 08:58N 43°45' W 003°34'1 1.1
2017-Oct-15 08:28N 43°45' W 003°35'1 1.0
2017-Oct-15 07:58N 43°44' W 003°35'0 1.0
2017-Oct-15 07:28N 43°44' W 003°36'0 1.0
2017-Oct-15 06:58N 43°44' W 003°36'0 0.9
2017-Oct-15 06:28N 43°43' W 003°37'1 1.1
2017-Oct-15 05:58N 43°43' W 003°37'0 0.9
2017-Oct-15 05:28N 43°43' W 003°37'0 1.0
2017-Oct-15 04:58N 43°42' W 003°38'0 1.0
2017-Oct-15 04:28N 43°42' W 003°38'0 0.9
2017-Oct-15 03:58N 43°41' W 003°38'0 0.8
2017-Oct-15 03:28N 43°41' W 003°39'0 0.7
2017-Oct-15 02:58N 43°41' W 003°39'0 0.6
2017-Oct-15 02:28N 43°40' W 003°39'0 0.6
2017-Oct-15 01:58N 43°40' W 003°40'0 0.8
2017-Oct-15 01:28N 43°40' W 003°40'0 0.7
2017-Oct-15 00:58N 43°40' W 003°40'0 0.8
2017-Oct-15 00:28N 43°39' W 003°41'0 0.8
2017-Oct-14 23:58N 43°39' W 003°41'0 0.8
2017-Oct-14 23:28N 43°39' W 003°42'0 0.8
2017-Oct-14 22:58N 43°39' W 003°42'0 0.7
2017-Oct-14 22:28N 43°39' W 003°43'0 0.8
2017-Oct-14 21:58N 43°39' W 003°43'0 0.7
2017-Oct-14 21:28N 43°39' W 003°44'0 0.6
2017-Oct-14 20:58N 43°38' W 003°44'0 0.6
2017-Oct-14 20:28N 43°38' W 003°44'0 0.6
2017-Oct-14 19:59N 43°38' W 003°45'0 0.7
2017-Oct-14 19:31N 43°38' W 003°45'0 0.7
2017-Oct-14 19:01N 43°38' W 003°45'0 1.0
2017-Oct-14 18:31N 43°39' W 003°46'0 0.4
2017-Oct-14 18:01N 43°39' W 003°46'0 0.8
2017-Oct-14 17:30N 43°39' W 003°45'3 7.0
2017-Oct-14 17:00N 43°35' W 003°45'510.3
2017-Oct-14 16:31N 43°30' W 003°45'1 1.4
2017-Oct-14 16:01N 43°29' W 003°46'0 0.1
2017-Oct-14 15:24N 43°29' W 003°46'0 0.1
2017-Oct-14 15:01N 43°29' W 003°46'0 0.0
2017-Oct-14 14:30N 43°29' W 003°46'0 0.0
2017-Oct-14 14:00N 43°29' W 003°46'0 0.0
2017-Oct-14 13:31N 43°29' W 003°46'0 0.0
2017-Oct-14 12:58N 43°29' W 003°46'0 0.0
2017-Oct-14 12:28N 43°29' W 003°46'0 0.0
2017-Oct-14 12:00N 43°29' W 003°46'0 0.0
2017-Oct-14 11:31N 43°29' W 003°46'0 0.0
2017-Oct-14 10:54N 43°29' W 003°46'0 0.1
2017-Oct-14 10:31N 43°29' W 003°46'0 0.2
2017-Oct-14 10:00N 43°29' W 003°46'2 3.9
2017-Oct-14 09:30N 43°31' W 003°45'510.6
2017-Oct-14 09:01N 43°36' W 003°46'815.7
2017-Oct-14 08:31N 43°44' W 003°50'815.6
2017-Oct-14 08:01N 43°51' W 003°53'815.7
2017-Oct-14 07:30N 43°59' W 003°56'815.9
2017-Oct-14 07:01N 44°06' W 004°00'815.9
2017-Oct-14 06:30N 44°14' W 004°04'815.7
2017-Oct-14 05:58N 44°22' W 004°07'715.6
2017-Oct-14 05:31N 44°28' W 004°11'815.7
2017-Oct-14 04:59N 44°36' W 004°15'3315.6
2017-Oct-14 02:52N 45°07' W 004°30'1115.9
2017-Oct-14 02:10N 45°18' W 004°35'715.9
2017-Oct-14 01:43N 45°25' W 004°38'516.1
2017-Oct-14 01:24N 45°29' W 004°41'615.2
2017-Oct-14 01:00N 45°35' W 004°43'2315.5
2017-Oct-13 23:33N 45°57' W 004°54'515.3
2017-Oct-13 23:15N 46°01' W 004°56'415.2
2017-Oct-13 23:00N 46°04' W 004°58'815.5
2017-Oct-13 22:31N 46°12' W 005°02'915.7
2017-Oct-13 21:58N 46°20' W 005°06'715.5
2017-Oct-13 21:30N 46°26' W 005°09'815.2
2017-Oct-13 21:00N 46°34' W 005°13'1015.3
2017-Oct-13 20:19N 46°44' W 005°18'515.1
2017-Oct-13 19:58N 46°49' W 005°20'715.2
2017-Oct-13 19:31N 46°55' W 005°24'815.3
2017-Oct-13 19:00N 47°03' W 005°27'815.5
2017-Oct-13 18:30N 47°10' W 005°30'815.3
2017-Oct-13 17:59N 47°17' W 005°34'715.3
2017-Oct-13 17:31N 47°24' W 005°38'815.3
2017-Oct-13 17:01N 47°31' W 005°42'815.5
2017-Oct-13 16:31N 47°39' W 005°45'816.4
2017-Oct-13 16:00N 47°47' W 005°49'1315.8
2017-Oct-13 15:13N 47°58' W 005°56'416.0
2017-Oct-13 14:58N 48°02' W 005°58'815.9
2017-Oct-13 14:29N 48°09' W 006°01'1315.9
2017-Oct-13 13:39N 48°22' W 006°08'214.5
2017-Oct-13 13:29N 48°24' W 006°08'815.5
2017-Oct-13 12:56N 48°32' W 006°04'915.5
2017-Oct-13 12:22N 48°40' W 005°58'615.1
2017-Oct-13 11:59N 48°45' W 005°53'715.0
2017-Oct-13 11:30N 48°51' W 005°48'713.6
2017-Oct-13 11:00N 48°56' W 005°41'714.2
2017-Oct-13 10:30N 48°59' W 005°31'714.0
2017-Oct-13 10:00N 49°03' W 005°22'714.3
2017-Oct-13 09:31N 49°07' W 005°13'714.0
2017-Oct-13 09:01N 49°11' W 005°05'714.6
2017-Oct-13 08:30N 49°15' W 004°55'715.0
2017-Oct-13 08:00N 49°18' W 004°45'815.3
2017-Oct-13 07:31N 49°23' W 004°35'815.5
2017-Oct-13 07:01N 49°26' W 004°25'815.8
2017-Oct-13 06:30N 49°30' W 004°14'816.2
2017-Oct-13 06:00N 49°34' W 004°03'816.4
2017-Oct-13 05:29N 49°38' W 003°51'816.5
2017-Oct-13 05:01N 49°42' W 003°41'816.8
2017-Oct-13 04:31N 49°47' W 003°30'816.8
2017-Oct-13 04:01N 49°51' W 003°19'816.8
2017-Oct-13 03:30N 49°56' W 003°08'816.4
2017-Oct-13 03:00N 49°60' W 002°57'816.2
2017-Oct-13 02:30N 50°02' W 002°45'915.7
2017-Oct-13 01:58N 50°03' W 002°32'2514.8
2017-Oct-13 00:15N 50°10' W 001°54'514.6
2017-Oct-12 23:55N 50°11' W 001°46'1114.8
2017-Oct-12 23:11N 50°14' W 001°30'414.9
2017-Oct-12 22:55N 50°15' W 001°24'615.0
2017-Oct-12 22:30N 50°17' W 001°15'815.6
2017-Oct-12 22:01N 50°19' W 001°03'816.5
2017-Oct-12 21:30N 50°21' W 000°50'917.1
2017-Oct-12 20:58N 50°23' W 000°36'817.5
2017-Oct-12 20:31N 50°26' W 000°24'917.6
2017-Oct-12 20:00N 50°28' W 000°11'917.7
2017-Oct-12 19:31N 50°30' E 000°03'917.8
2017-Oct-12 19:01N 50°32' E 000°16'917.6
2017-Oct-12 18:31N 50°35' E 000°29'917.1
2017-Oct-12 18:01N 50°39' E 000°41'816.7
2017-Oct-12 17:31N 50°43' E 000°52'816.3
2017-Oct-12 17:01N 50°48' E 001°03'815.9
2017-Oct-12 16:30N 50°52' E 001°14'714.1
2017-Oct-12 16:00N 50°57' E 001°22'713.9
2017-Oct-12 15:31N 51°02' E 001°29'815.3
2017-Oct-12 15:01N 51°07' E 001°38'815.6
2017-Oct-12 14:31N 51°14' E 001°45'816.9
2017-Oct-12 14:01N 51°21' E 001°51'917.6
2017-Oct-12 13:30N 51°29' E 001°59'917.9
2017-Oct-12 13:00N 51°35' E 002°09'917.8
2017-Oct-12 12:30N 51°41' E 002°19'7515.7
2017-Oct-12 07:44N 52°40' E 003°35'314.1
2017-Oct-12 07:30N 52°43' E 003°38'713.8
2017-Oct-12 07:00N 52°48' E 003°45'713.6
2017-Oct-12 06:31N 52°53' E 003°53'713.6
2017-Oct-12 06:00N 52°58' E 004°00'713.9
2017-Oct-12 05:30N 53°03' E 004°09'714.0
2017-Oct-12 05:01N 53°07' E 004°18'713.6
2017-Oct-12 04:30N 53°13' E 004°25'915.1
2017-Oct-12 03:54N 53°21' E 004°30'614.7
2017-Oct-12 03:30N 53°27' E 004°34'713.3
2017-Oct-12 03:00N 53°30' E 004°43'714.1
2017-Oct-12 02:30N 53°33' E 004°55'714.1
2017-Oct-12 02:00N 53°35' E 005°06'713.8
2017-Oct-12 01:31N 53°37' E 005°17'713.4
2017-Oct-12 00:58N 53°39' E 005°29'7813.6
2017-Oct-11 19:13N 54°00' E 007°36'312.5
2017-Oct-11 18:57N 53°58' E 007°41'914.4
2017-Oct-11 18:21N 53°53' E 007°52'616.6
2017-Oct-11 18:00N 53°51' E 008°01'917.4
2017-Oct-11 17:31N 53°45' E 008°12'917.2
2017-Oct-11 17:00N 53°40' E 008°23'9 0.5
2017-Oct-10 23:58N 53°34' E 008°34'0 0.0
2017-Oct-10 23:28N 53°34' E 008°34'0 0.0
2017-Oct-10 22:58N 53°34' E 008°34'0 0.0
2017-Oct-10 22:28N 53°34' E 008°34'0 0.0
2017-Oct-10 21:58N 53°34' E 008°34'0 0.0
2017-Oct-10 21:28N 53°34' E 008°34'0 0.0
2017-Oct-10 20:58N 53°34' E 008°34'0 0.0
2017-Oct-10 20:28N 53°34' E 008°34'0 0.0
2017-Oct-10 19:58N 53°34' E 008°34'0 0.6
2017-Oct-10 19:30N 53°34' E 008°34'0 0.4
2017-Oct-10 19:00N 53°33' E 008°34'0 0.5
2017-Oct-10 18:30N 53°33' E 008°34'1 2.0
2017-Oct-10 18:00N 53°34' E 008°33'3 6.7
2017-Oct-10 17:30N 53°37' E 008°29'713.3
2017-Oct-10 17:00N 53°41' E 008°21'713.4
2017-Oct-10 16:30N 53°45' E 008°12'713.7
2017-Oct-10 16:00N 53°50' E 008°04'713.9
2017-Oct-10 15:30N 53°52' E 007°52'611.4
2017-Oct-10 14:57N 53°53' E 007°42'7815.6
2017-Oct-10 09:59N 53°36' E 005°34'817.1
2017-Oct-10 09:30N 53°34' E 005°21'917.2
2017-Oct-10 09:00N 53°32' E 005°07'917.1
2017-Oct-10 08:30N 53°27' E 004°54'917.1
2017-Oct-10 08:01N 53°24' E 004°41'917.1
2017-Oct-10 07:30N 53°16' E 004°36'918.0
2017-Oct-10 07:00N 53°08' E 004°29'917.6
2017-Oct-10 06:30N 52°60' E 004°22'917.3
2017-Oct-10 06:00N 52°52' E 004°16'917.5
2017-Oct-10 05:30N 52°45' E 004°06'917.7
2017-Oct-10 05:00N 52°39' E 003°57'917.7
2017-Oct-10 04:30N 52°32' E 003°47'917.6
2017-Oct-10 04:00N 52°26' E 003°37'1017.3
2017-Oct-10 03:25N 52°19' E 003°26'1016.9
2017-Oct-10 02:49N 52°11' E 003°15'516.5
2017-Oct-10 02:30N 52°07' E 003°09'816.2
2017-Oct-10 01:59N 52°01' E 002°59'815.7
2017-Oct-10 01:29N 51°55' E 002°50'715.3
2017-Oct-10 01:00N 51°50' E 002°42'714.3
2017-Oct-10 00:29N 51°43' E 002°41'713.9
2017-Oct-10 00:00N 51°36' E 002°43'714.3
2017-Oct-09 23:30N 51°29' E 002°42'5 9.9
2017-Oct-09 23:00N 51°25' E 002°46'714.7
2017-Oct-09 22:30N 51°25' E 002°58'815.2
2017-Oct-09 22:00N 51°23' E 003°10'4 7.1
2017-Oct-09 21:30N 51°20' E 003°13'0 0.0
2017-Oct-09 20:58N 51°20' E 003°13'0 0.0
2017-Oct-09 20:28N 51°20' E 003°13'1 2.2
2017-Oct-09 20:00N 51°19' E 003°13'0 0.8
2017-Oct-09 19:29N 51°19' E 003°13'0 0.0
2017-Oct-09 18:59N 51°19' E 003°13'0 0.0
2017-Oct-09 18:29N 51°19' E 003°13'0 0.0
2017-Oct-09 17:59N 51°19' E 003°13'0 0.0
2017-Oct-09 17:29N 51°19' E 003°13'0 0.0
2017-Oct-09 16:59N 51°19' E 003°13'0 0.0
2017-Oct-09 16:29N 51°19' E 003°13'0 0.0
2017-Oct-09 15:59N 51°19' E 003°13'0 0.0
2017-Oct-09 15:29N 51°19' E 003°13'0 0.0
2017-Oct-09 14:59N 51°19' E 003°13'0 0.0
2017-Oct-09 14:29N 51°19' E 003°13'0 0.0
2017-Oct-09 13:59N 51°19' E 003°13'0 0.0
2017-Oct-09 13:29N 51°19' E 003°13'0 0.0
2017-Oct-09 12:59N 51°19' E 003°13'0 0.0
2017-Oct-09 12:29N 51°19' E 003°13'0 0.0
2017-Oct-09 11:59N 51°19' E 003°13'0 0.0
2017-Oct-09 11:29N 51°19' E 003°13'0 0.0
2017-Oct-09 10:59N 51°19' E 003°13'0 0.0
2017-Oct-09 10:29N 51°19' E 003°13'0 0.0
2017-Oct-09 09:59N 51°19' E 003°13'0 0.0
2017-Oct-09 09:29N 51°19' E 003°13'0 0.0
2017-Oct-09 08:59N 51°19' E 003°13'0 0.0
2017-Oct-09 08:29N 51°19' E 003°13'0 0.0
2017-Oct-09 07:59N 51°19' E 003°13'0 0.0
2017-Oct-09 07:29N 51°19' E 003°13'0 0.0
2017-Oct-09 06:59N 51°19' E 003°13'0 0.0
2017-Oct-09 06:29N 51°19' E 003°13'0 0.0
2017-Oct-09 05:59N 51°19' E 003°13'0 0.0
2017-Oct-09 05:29N 51°19' E 003°13'0 0.0
2017-Oct-09 04:59N 51°19' E 003°13'0 0.0
2017-Oct-09 04:29N 51°19' E 003°13'0 0.0
2017-Oct-09 03:59N 51°19' E 003°13'0 0.0
2017-Oct-09 03:29N 51°19' E 003°13'0 0.0
2017-Oct-09 02:59N 51°19' E 003°13'0 0.0
2017-Oct-09 02:29N 51°19' E 003°13'0 0.0
2017-Oct-09 01:59N 51°19' E 003°13'0 0.0
2017-Oct-09 01:29N 51°19' E 003°13'0 0.0
2017-Oct-09 00:59N 51°19' E 003°13'0 0.0
2017-Oct-09 00:29N 51°19' E 003°13'0 0.0
2017-Oct-08 23:59N 51°19' E 003°13'0 0.0
2017-Oct-08 23:29N 51°19' E 003°13'0 0.0
2017-Oct-08 22:59N 51°19' E 003°13'0 0.0
2017-Oct-08 22:29N 51°19' E 003°13'0 0.0
2017-Oct-08 21:59N 51°19' E 003°13'0 0.0
2017-Oct-08 21:29N 51°19' E 003°13'0 0.0
2017-Oct-08 20:59N 51°19' E 003°13'0 0.0
2017-Oct-08 20:29N 51°19' E 003°13'0 0.0
2017-Oct-08 19:59N 51°19' E 003°13'0 0.0
2017-Oct-08 19:29N 51°19' E 003°13'0 0.0
2017-Oct-08 18:59N 51°19' E 003°13'0 0.0
2017-Oct-08 18:29N 51°19' E 003°13'0 0.0
2017-Oct-08 17:59N 51°19' E 003°13'0 0.0
2017-Oct-08 17:29N 51°19' E 003°13'0 0.0
2017-Oct-08 16:59N 51°19' E 003°13'0 0.0
2017-Oct-08 16:29N 51°19' E 003°13'0 0.0
2017-Oct-08 15:59N 51°19' E 003°13'0 0.0
2017-Oct-08 15:29N 51°19' E 003°13'0 0.0
2017-Oct-08 14:59N 51°19' E 003°13'0 0.0
2017-Oct-08 14:29N 51°19' E 003°13'0 0.0
2017-Oct-08 13:59N 51°19' E 003°13'0 0.0
2017-Oct-08 13:29N 51°19' E 003°13'0 0.0
2017-Oct-08 12:59N 51°19' E 003°13'0 0.0
2017-Oct-08 12:29N 51°19' E 003°13'0 0.0
2017-Oct-08 11:59N 51°19' E 003°13'0 0.0
2017-Oct-08 11:29N 51°19' E 003°13'0 0.0
2017-Oct-08 10:59N 51°19' E 003°13'0 0.0
2017-Oct-08 10:29N 51°19' E 003°13'0 0.0
2017-Oct-08 09:59N 51°19' E 003°13'0 0.0
2017-Oct-08 09:29N 51°19' E 003°13'0 0.0
2017-Oct-08 08:59N 51°19' E 003°13'0 0.0
2017-Oct-08 08:29N 51°19' E 003°13'0 0.0
2017-Oct-08 07:59N 51°19' E 003°13'0 0.0
2017-Oct-08 07:29N 51°19' E 003°13'0 0.0
2017-Oct-08 06:59N 51°19' E 003°13'0 0.0
2017-Oct-08 06:29N 51°19' E 003°13'0 0.0
2017-Oct-08 05:59N 51°19' E 003°13'0 0.0
2017-Oct-08 05:29N 51°19' E 003°13'0 0.0
2017-Oct-08 04:59N 51°19' E 003°13'0 0.0
2017-Oct-08 04:29N 51°19' E 003°13'0 0.0
2017-Oct-08 03:59N 51°19' E 003°13'0 0.0
2017-Oct-08 03:29N 51°19' E 003°13'0 0.0
2017-Oct-08 02:59N 51°19' E 003°13'0 0.0
2017-Oct-08 02:29N 51°19' E 003°13'0 0.0
2017-Oct-08 01:59N 51°19' E 003°13'0 0.0
2017-Oct-08 01:29N 51°19' E 003°13'0 0.0
2017-Oct-08 00:59N 51°19' E 003°13'0 0.0
2017-Oct-08 00:29N 51°19' E 003°13'0 0.0
2017-Oct-07 23:59N 51°19' E 003°13'0 0.0
2017-Oct-07 23:29N 51°19' E 003°13'0 0.0
2017-Oct-07 22:59N 51°19' E 003°13'0 0.0
2017-Oct-07 22:29N 51°19' E 003°13'0 0.0
2017-Oct-07 21:59N 51°19' E 003°13'0 0.0
2017-Oct-07 21:29N 51°19' E 003°13'0 0.0
2017-Oct-07 20:59N 51°19' E 003°13'0 0.0
2017-Oct-07 20:29N 51°19' E 003°13'0 0.0
2017-Oct-07 19:59N 51°19' E 003°13'0 0.0
2017-Oct-07 19:29N 51°19' E 003°13'0 0.0
2017-Oct-07 18:59N 51°19' E 003°13'0 0.0
2017-Oct-07 18:29N 51°19' E 003°13'0 0.0
2017-Oct-07 17:59N 51°19' E 003°13'0 0.0
2017-Oct-07 17:29N 51°19' E 003°13'0 0.0
2017-Oct-07 16:59N 51°19' E 003°13'0 0.0
2017-Oct-07 16:29N 51°19' E 003°13'0 0.0
2017-Oct-07 15:59N 51°19' E 003°13'0 0.0
2017-Oct-07 15:29N 51°19' E 003°13'0 0.0
2017-Oct-07 14:59N 51°19' E 003°13'0 0.0
2017-Oct-07 14:29N 51°19' E 003°13'0 0.0
2017-Oct-07 13:59N 51°19' E 003°13'0 0.0
2017-Oct-07 13:29N 51°19' E 003°13'0 0.0
2017-Oct-07 12:59N 51°19' E 003°13'0 0.0
2017-Oct-07 12:29N 51°19' E 003°13'0 0.0
2017-Oct-07 11:59N 51°19' E 003°13'0 0.0
2017-Oct-07 11:29N 51°19' E 003°13'0 0.0
2017-Oct-07 10:59N 51°19' E 003°13'0 0.0
2017-Oct-07 10:29N 51°19' E 003°13'0 0.0
2017-Oct-07 09:59N 51°19' E 003°13'0 0.0
2017-Oct-07 09:29N 51°19' E 003°13'0 0.0
2017-Oct-07 08:59N 51°19' E 003°13'0 0.0
2017-Oct-07 08:29N 51°19' E 003°13'0 0.0
2017-Oct-07 07:59N 51°19' E 003°13'0 0.0
2017-Oct-07 07:29N 51°19' E 003°13'0 0.0
2017-Oct-07 06:59N 51°19' E 003°13'0 0.0
2017-Oct-07 06:29N 51°19' E 003°13'0 0.2
2017-Oct-07 06:00N 51°19' E 003°13'1 1.4
2017-Oct-07 05:30N 51°20' E 003°13'0 0.5
2017-Oct-07 05:01N 51°20' E 003°13'0 0.1
2017-Oct-07 04:31N 51°20' E 003°13'2 4.3
2017-Oct-07 04:01N 51°22' E 003°11'611.0
2017-Oct-07 03:31N 51°24' E 003°03'  

Dump ship's entire track history